Time;durP1;ratioP1;P1;durP2;ratioP2;P2;SDS_P1;SDS_P2;PMS_P1;PMS_P2;Temp;Humidity;BMP_temperature;BMP_pressure;BME280_temperature;BME280_humidity;BME280_pressure;Samples;Min_cycle;Max_cycle;Signal;HPM_P1;HPM_P2
2021/12/27 00:01:23;;;;;;;39.25;23.42;;;;;;;;;;5032661;28;20194;-65
2021/12/27 00:03:51;;;;;;;37.55;21.88;;;;;;;;;;5032700;28;20632;-65
2021/12/27 00:06:17;;;;;;;38.25;24.05;;;;;;;;;;5032689;28;20178;-66
2021/12/27 00:08:43;;;;;;;33.40;21.63;;;;;;;;;;5032675;28;20174;-66
2021/12/27 00:11:09;;;;;;;36.08;23.23;;;;;;;;;;5032865;28;20246;-67
2021/12/27 00:13:34;;;;;;;35.42;22.67;;;;;;;;;;5032641;28;20648;-67
2021/12/27 00:15:59;;;;;;;37.53;25.35;;;;;;;;;;5032531;28;20187;-66
2021/12/27 00:18:24;;;;;;;40.75;25.55;;;;;;;;;;5032487;28;20178;-66
2021/12/27 00:20:50;;;;;;;41.08;24.23;;;;;;;;;;5032447;28;20175;-66
2021/12/27 00:23:15;;;;;;;41.08;23.67;;;;;;;;;;5032973;28;20174;-66
2021/12/27 00:25:40;;;;;;;37.83;25.08;;;;;;;;;;5032713;28;20170;-66
2021/12/27 00:28:06;;;;;;;36.85;24.75;;;;;;;;;;5032412;28;20225;-66
2021/12/27 00:30:31;;;;;;;38.95;25.00;;;;;;;;;;5032376;28;20562;-67
2021/12/27 00:32:56;;;;;;;41.40;23.48;;;;;;;;;;5032585;28;20178;-65
2021/12/27 00:35:26;;;;;;;36.40;22.80;;;;;;;;;;5032141;28;20679;-67
2021/12/27 00:37:52;;;;;;;42.45;25.65;;;;;;;;;;5032517;28;20266;-66
2021/12/27 00:40:17;;;;;;;35.65;23.10;;;;;;;;;;5032230;28;20201;-66
2021/12/27 00:42:43;;;;;;;39.78;24.10;;;;;;;;;;5032036;28;20666;-65
2021/12/27 00:45:08;;;;;;;39.72;23.27;;;;;;;;;;5032138;28;20174;-65
2021/12/27 00:47:34;;;;;;;40.72;22.95;;;;;;;;;;5032318;28;20568;-66
2021/12/27 00:49:59;;;;;;;41.90;25.15;;;;;;;;;;5032364;28;20257;-66
2021/12/27 00:52:24;;;;;;;57.85;34.03;;;;;;;;;;5032007;28;20197;-66
2021/12/27 00:54:50;;;;;;;59.78;35.72;;;;;;;;;;5031995;28;20312;-65
2021/12/27 00:57:15;;;;;;;67.75;39.85;;;;;;;;;;5032512;28;20232;-66
2021/12/27 00:59:40;;;;;;;82.75;48.10;;;;;;;;;;5031951;28;20663;-66
2021/12/27 01:02:05;;;;;;;86.90;52.28;;;;;;;;;;5031763;28;20699;-66
2021/12/27 01:04:31;;;;;;;91.05;52.67;;;;;;;;;;5032191;28;20166;-67
2021/12/27 01:06:56;;;;;;;85.03;49.60;;;;;;;;;;5031908;28;20567;-67
2021/12/27 01:09:30;;;;;;;73.90;46.92;;;;;;;;;;5032418;28;20166;-66
2021/12/27 01:15:33;;;;;;;64.88;36.08;;;;;;;;;;5032231;28;20741;-66
2021/12/27 01:17:56;;;;;;;54.90;33.47;;;;;;;;;;5035819;28;20201;-65
2021/12/27 01:20:22;;;;;;;46.67;27.00;;;;;;;;;;5036156;28;20633;-66
2021/12/27 01:22:47;;;;;;;64.80;35.90;;;;;;;;;;5035717;28;20202;-66
2021/12/27 01:25:13;;;;;;;70.25;41.63;;;;;;;;;;5035767;28;20170;-65
2021/12/27 01:27:39;;;;;;;68.40;40.53;;;;;;;;;;5035940;28;20167;-66
2021/12/27 01:30:05;;;;;;;70.95;40.53;;;;;;;;;;5035678;28;20572;-67
2021/12/27 01:32:36;;;;;;;64.85;39.55;;;;;;;;;;5035912;28;20208;-67
2021/12/27 01:35:01;;;;;;;67.93;39.38;;;;;;;;;;5035602;28;20281;-66
2021/12/27 01:37:27;;;;;;;60.72;38.90;;;;;;;;;;5035507;28;20181;-66
2021/12/27 01:39:52;;;;;;;55.40;35.67;;;;;;;;;;5035521;28;20178;-66
2021/12/27 01:42:17;;;;;;;51.83;31.25;;;;;;;;;;5035694;28;20205;-66
2021/12/27 01:44:42;;;;;;;52.53;32.90;;;;;;;;;;5035381;28;20674;-65
2021/12/27 01:47:09;;;;;;;61.13;35.92;;;;;;;;;;5035337;28;20181;-66
2021/12/27 01:49:35;;;;;;;55.42;33.08;;;;;;;;;;5035533;28;20177;-66
2021/12/27 01:52:00;;;;;;;54.00;33.85;;;;;;;;;;5035815;28;20175;-67
2021/12/27 01:54:25;;;;;;;86.97;46.53;;;;;;;;;;5035255;28;20236;-66
2021/12/27 01:56:51;;;;;;;88.93;46.97;;;;;;;;;;5035210;28;20281;-66
2021/12/27 01:59:17;;;;;;;86.75;45.65;;;;;;;;;;5035341;28;20182;-66
2021/12/27 02:01:42;;;;;;;83.03;44.72;;;;;;;;;;5034971;28;20602;-66
2021/12/27 02:04:07;;;;;;;63.05;39.92;;;;;;;;;;5035049;28;20172;-67
2021/12/27 02:06:33;;;;;;;64.00;36.65;;;;;;;;;;5035014;28;20175;-66
2021/12/27 02:08:58;;;;;;;69.28;37.42;;;;;;;;;;5035541;28;20170;-66
2021/12/27 02:11:23;;;;;;;59.00;36.03;;;;;;;;;;5034889;28;20218;-66
2021/12/27 02:13:49;;;;;;;58.30;31.40;;;;;;;;;;5034991;28;20179;-66
2021/12/27 02:16:16;;;;;;;53.03;32.65;;;;;;;;;;5035084;28;20190;-66
2021/12/27 02:18:44;;;;;;;48.80;31.30;;;;;;;;;;5035109;28;20178;-65
2021/12/27 02:21:10;;;;;;;43.67;28.33;;;;;;;;;;5034669;28;20687;-66
2021/12/27 02:23:37;;;;;;;41.95;26.63;;;;;;;;;;5035810;28;20237;-66
2021/12/27 02:26:02;;;;;;;49.72;31.75;;;;;;;;;;5033579;28;20228;-66
2021/12/27 02:28:28;;;;;;;52.92;32.97;;;;;;;;;;5034883;28;20174;-65
2021/12/27 02:30:54;;;;;;;54.25;34.17;;;;;;;;;;5034582;28;20698;-66
2021/12/27 02:33:19;;;;;;;54.72;31.73;;;;;;;;;;5034465;28;20713;-66
2021/12/27 02:35:47;;;;;;;48.60;30.90;;;;;;;;;;5034426;28;20190;-66
2021/12/27 02:38:16;;;;;;;54.47;33.40;;;;;;;;;;5034434;28;20262;-65
2021/12/27 02:40:43;;;;;;;57.25;34.10;;;;;;;;;;5034392;28;20651;-65
2021/12/27 02:43:15;;;;;;;50.50;31.52;;;;;;;;;;5034306;28;20234;-65
2021/12/27 02:45:42;;;;;;;47.90;31.23;;;;;;;;;;5034349;28;20178;-66
2021/12/27 02:48:08;;;;;;;54.38;31.58;;;;;;;;;;5034180;28;20167;-66
2021/12/27 02:50:37;;;;;;;57.35;35.22;;;;;;;;;;5034215;28;20253;-64
2021/12/27 02:53:03;;;;;;;54.60;33.42;;;;;;;;;;5034155;28;20244;-66
2021/12/27 02:55:29;;;;;;;58.38;33.90;;;;;;;;;;5034174;28;20170;-66
2021/12/27 02:57:54;;;;;;;50.38;31.75;;;;;;;;;;5034083;28;20170;-66
2021/12/27 03:00:23;;;;;;;54.40;30.85;;;;;;;;;;5034022;28;20175;-66
2021/12/27 03:02:50;;;;;;;49.97;30.25;;;;;;;;;;5033815;28;20210;-67
2021/12/27 03:05:19;;;;;;;45.20;29.58;;;;;;;;;;5034219;28;20174;-67
2021/12/27 03:07:45;;;;;;;43.92;25.50;;;;;;;;;;5033832;28;20217;-66
2021/12/27 03:10:11;;;;;;;38.00;24.40;;;;;;;;;;5034138;28;20232;-66
2021/12/27 03:12:38;;;;;;;39.38;23.73;;;;;;;;;;5033588;28;20182;-66
2021/12/27 03:15:04;;;;;;;39.25;25.67;;;;;;;;;;5034174;28;20305;-66
2021/12/27 03:17:29;;;;;;;49.78;26.60;;;;;;;;;;5033694;28;20610;-66
2021/12/27 03:19:55;;;;;;;44.38;27.73;;;;;;;;;;5033691;28;20183;-66
2021/12/27 03:22:20;;;;;;;43.22;26.77;;;;;;;;;;5033802;28;20201;-67
2021/12/27 03:24:45;;;;;;;44.53;28.02;;;;;;;;;;5033803;28;20174;-66
2021/12/27 03:27:10;;;;;;;42.70;26.63;;;;;;;;;;5033490;28;20561;-66
2021/12/27 03:29:35;;;;;;;47.30;28.55;;;;;;;;;;5033480;28;20179;-66
2021/12/27 03:32:02;;;;;;;47.15;31.13;;;;;;;;;;5033583;28;20182;-66
2021/12/27 03:34:28;;;;;;;53.85;32.10;;;;;;;;;;5033226;28;20209;-66
2021/12/27 03:36:53;;;;;;;53.33;33.67;;;;;;;;;;5032835;28;20179;-66
2021/12/27 03:39:18;;;;;;;52.85;34.92;;;;;;;;;;5033836;28;20181;-66
2021/12/27 03:41:44;;;;;;;55.95;34.65;;;;;;;;;;5033310;28;20668;-66
2021/12/27 03:44:09;;;;;;;48.92;29.58;;;;;;;;;;5033093;28;20273;-66
2021/12/27 03:46:35;;;;;;;62.03;37.63;;;;;;;;;;5033070;28;20228;-66
2021/12/27 03:49:00;;;;;;;57.85;33.85;;;;;;;;;;5033051;28;20566;-66
2021/12/27 03:51:25;;;;;;;40.88;27.67;;;;;;;;;;5033347;28;20232;-67
2021/12/27 03:53:51;;;;;;;41.85;26.60;;;;;;;;;;5033270;28;20179;-66
2021/12/27 03:56:16;;;;;;;45.15;27.35;;;;;;;;;;5031722;28;20209;-65
2021/12/27 03:59:19;;;;;;;40.58;25.23;;;;;;;;;;5032927;28;20204;-65
2021/12/27 04:01:31;;;;;;;39.53;24.33;;;;;;;;;;5032446;28;20747;-65
2021/12/27 04:03:56;;;;;;;45.30;28.10;;;;;;;;;;5033152;28;20568;-65
2021/12/27 04:06:22;;;;;;;65.57;37.33;;;;;;;;;;5033068;28;20174;-65
2021/12/27 04:08:48;;;;;;;59.90;34.45;;;;;;;;;;5032723;28;20186;-65
2021/12/27 04:11:13;;;;;;;65.43;36.35;;;;;;;;;;5033266;28;20174;-65
2021/12/27 04:13:39;;;;;;;56.90;37.58;;;;;;;;;;5032637;28;20607;-65
2021/12/27 04:16:05;;;;;;;59.45;37.25;;;;;;;;;;5032841;28;20794;-66
2021/12/27 04:18:30;;;;;;;58.53;35.03;;;;;;;;;;5032546;28;20182;-65
2021/12/27 04:20:55;;;;;;;67.38;37.75;;;;;;;;;;5032712;28;20236;-65
2021/12/27 04:23:21;;;;;;;70.90;40.42;;;;;;;;;;5032744;28;20182;-65
2021/12/27 04:25:46;;;;;;;70.88;41.83;;;;;;;;;;5032710;28;20265;-66
2021/12/27 04:28:11;;;;;;;71.28;43.47;;;;;;;;;;5032607;28;20174;-66
2021/12/27 04:30:37;;;;;;;65.32;40.20;;;;;;;;;;5032415;28;20647;-66
2021/12/27 04:33:03;;;;;;;73.57;41.22;;;;;;;;;;5032608;28;20236;-66
2021/12/27 04:35:28;;;;;;;64.43;38.88;;;;;;;;;;5032271;28;20588;-65
2021/12/27 04:37:54;;;;;;;68.68;39.45;;;;;;;;;;5032241;28;20197;-65
2021/12/27 04:40:20;;;;;;;65.97;40.33;;;;;;;;;;5032789;28;20170;-65
2021/12/27 04:42:48;;;;;;;63.95;39.83;;;;;;;;;;5032073;28;20653;-64
2021/12/27 04:45:14;;;;;;;64.90;38.70;;;;;;;;;;5032065;28;20228;-67
2021/12/27 04:47:40;;;;;;;56.30;37.53;;;;;;;;;;5032367;28;20187;-65
2021/12/27 04:50:05;;;;;;;56.70;32.10;;;;;;;;;;5031645;28;20186;-65
2021/12/27 04:52:31;;;;;;;56.88;34.38;;;;;;;;;;5032339;28;20182;-66
2021/12/27 04:54:56;;;;;;;52.75;33.55;;;;;;;;;;5032293;28;20650;-66
2021/12/27 04:57:21;;;;;;;55.47;35.45;;;;;;;;;;5031954;28;20178;-67
2021/12/27 04:59:47;;;;;;;55.85;35.88;;;;;;;;;;5031932;28;20174;-66
2021/12/27 05:02:12;;;;;;;50.83;30.77;;;;;;;;;;5031894;28;20194;-67
2021/12/27 05:04:37;;;;;;;51.15;30.80;;;;;;;;;;5032239;28;20174;-67
2021/12/27 05:07:03;;;;;;;52.30;30.10;;;;;;;;;;5032173;28;20652;-66
2021/12/27 05:09:28;;;;;;;45.03;28.92;;;;;;;;;;5032192;28;20170;-66
2021/12/27 05:11:53;;;;;;;42.63;26.48;;;;;;;;;;5031844;28;20182;-66
2021/12/27 05:14:18;;;;;;;39.47;24.33;;;;;;;;;;5031881;28;20190;-67
2021/12/27 05:16:44;;;;;;;37.30;23.23;;;;;;;;;;5032120;28;20261;-65
2021/12/27 05:19:09;;;;;;;37.10;22.63;;;;;;;;;;5031824;28;20170;-66
2021/12/27 05:21:34;;;;;;;43.10;25.17;;;;;;;;;;5031713;28;20198;-65
2021/12/27 05:24:00;;;;;;;36.13;23.23;;;;;;;;;;5032268;28;20198;-65
2021/12/27 05:26:25;;;;;;;29.70;20.65;;;;;;;;;;5032003;28;20568;-65
2021/12/27 05:28:50;;;;;;;33.05;20.63;;;;;;;;;;5031988;28;20170;-66
2021/12/27 05:31:16;;;;;;;29.85;20.80;;;;;;;;;;5031701;28;20174;-65
2021/12/27 05:33:41;;;;;;;29.67;19.52;;;;;;;;;;5031849;28;20198;-66
2021/12/27 05:36:06;;;;;;;30.58;20.52;;;;;;;;;;5032425;28;20657;-66
2021/12/27 05:38:32;;;;;;;38.72;26.05;;;;;;;;;;5031520;28;20186;-66
2021/12/27 05:40:57;;;;;;;34.63;22.38;;;;;;;;;;5032100;28;20256;-65
2021/12/27 05:43:22;;;;;;;31.08;21.02;;;;;;;;;;5039776;28;20174;-66
2021/12/27 05:45:49;;;;;;;30.23;20.25;;;;;;;;;;5040256;28;20205;-65
2021/12/27 05:48:15;;;;;;;30.23;20.40;;;;;;;;;;5041273;28;20178;-65
2021/12/27 05:50:41;;;;;;;28.60;17.95;;;;;;;;;;5035094;28;20198;-62
2021/12/27 05:53:06;;;;;;;30.40;18.88;;;;;;;;;;5030272;28;20174;-65
2021/12/27 05:55:31;;;;;;;30.70;17.80;;;;;;;;;;5029387;28;20596;-65
2021/12/27 05:57:57;;;;;;;26.48;18.38;;;;;;;;;;5030066;28;20179;-66
2021/12/27 06:00:22;;;;;;;35.80;21.52;;;;;;;;;;5032455;28;20174;-66
2021/12/27 06:02:48;;;;;;;29.77;19.65;;;;;;;;;;5034642;28;20206;-66
2021/12/27 06:05:13;;;;;;;30.63;20.80;;;;;;;;;;5034980;28;20175;-66
2021/12/27 06:07:39;;;;;;;32.88;21.33;;;;;;;;;;5034682;28;20636;-65
2021/12/27 06:10:05;;;;;;;48.75;27.58;;;;;;;;;;5034992;28;20166;-65
2021/12/27 06:12:31;;;;;;;65.30;35.35;;;;;;;;;;5034853;28;20170;-67
2021/12/27 06:14:57;;;;;;;67.68;35.33;;;;;;;;;;5034792;28;20197;-65
2021/12/27 06:17:22;;;;;;;64.03;34.97;;;;;;;;;;5034760;28;20178;-66
2021/12/27 06:19:47;;;;;;;71.47;38.63;;;;;;;;;;5035110;28;20229;-66
2021/12/27 06:22:13;;;;;;;60.97;37.80;;;;;;;;;;5034628;28;20194;-66
2021/12/27 06:24:38;;;;;;;51.50;31.65;;;;;;;;;;5034643;28;20657;-67
2021/12/27 06:27:03;;;;;;;57.85;31.25;;;;;;;;;;5034950;28;20174;-66
2021/12/27 06:29:29;;;;;;;37.45;22.98;;;;;;;;;;5034577;28;20181;-67
2021/12/27 06:31:54;;;;;;;26.25;18.17;;;;;;;;;;5034599;28;20178;-66
2021/12/27 06:34:19;;;;;;;27.23;17.50;;;;;;;;;;5034492;28;20262;-66
2021/12/27 06:36:44;;;;;;;31.02;20.05;;;;;;;;;;5034998;28;20187;-67
2021/12/27 06:39:10;;;;;;;34.67;21.48;;;;;;;;;;5034757;28;20170;-67
2021/12/27 06:41:35;;;;;;;31.98;18.90;;;;;;;;;;5033125;28;20209;-66
2021/12/27 06:44:01;;;;;;;44.08;25.60;;;;;;;;;;5034390;28;20250;-67
2021/12/27 06:46:26;;;;;;;62.42;39.58;;;;;;;;;;5034583;28;20640;-66
2021/12/27 06:48:52;;;;;;;67.32;39.47;;;;;;;;;;5034257;28;20170;-66
2021/12/27 06:51:17;;;;;;;55.35;37.83;;;;;;;;;;5034250;28;20564;-66
2021/12/27 06:53:42;;;;;;;52.40;32.97;;;;;;;;;;5034191;28;20640;-65
2021/12/27 06:56:07;;;;;;;50.35;31.73;;;;;;;;;;5034373;28;20192;-65
2021/12/27 06:58:33;;;;;;;56.08;34.58;;;;;;;;;;5034085;28;20169;-66
2021/12/27 07:00:58;;;;;;;58.40;34.85;;;;;;;;;;5034063;28;20254;-65
2021/12/27 07:03:23;;;;;;;59.17;33.97;;;;;;;;;;5034457;28;20240;-66
2021/12/27 07:05:49;;;;;;;52.13;33.10;;;;;;;;;;5034164;28;20277;-67
2021/12/27 07:08:14;;;;;;;50.40;31.65;;;;;;;;;;5034169;28;20175;-66
2021/12/27 07:10:39;;;;;;;36.97;27.48;;;;;;;;;;5033869;28;20719;-66
2021/12/27 07:13:06;;;;;;;40.80;26.67;;;;;;;;;;5033298;28;20659;-66
2021/12/27 07:15:31;;;;;;;42.65;27.15;;;;;;;;;;5033794;28;20194;-67
2021/12/27 07:17:57;;;;;;;55.90;35.92;;;;;;;;;;5033696;28;20261;-66
2021/12/27 07:20:22;;;;;;;57.25;33.55;;;;;;;;;;5033967;28;20725;-67
2021/12/27 07:22:48;;;;;;;58.83;34.17;;;;;;;;;;5033516;28;20233;-67
2021/12/27 07:25:13;;;;;;;70.40;42.03;;;;;;;;;;5033573;28;20185;-67
2021/12/27 07:27:38;;;;;;;99.50;54.53;;;;;;;;;;5034367;28;20204;-67
2021/12/27 07:30:05;;;;;;;103.03;55.58;;;;;;;;;;5033753;28;20178;-67
2021/12/27 07:32:31;;;;;;;85.68;46.50;;;;;;;;;;5033367;28;20542;-67
2021/12/27 07:34:59;;;;;;;87.55;48.70;;;;;;;;;;5033269;28;20232;-66
2021/12/27 07:37:25;;;;;;;82.72;48.78;;;;;;;;;;5032832;28;20194;-66
2021/12/27 07:39:50;;;;;;;82.72;51.72;;;;;;;;;;5031624;28;20695;-66
2021/12/27 07:42:15;;;;;;;110.10;61.53;;;;;;;;;;5032830;28;20646;-67
2021/12/27 07:44:41;;;;;;;117.50;67.43;;;;;;;;;;5033272;28;20198;-67
2021/12/27 07:47:06;;;;;;;102.78;61.55;;;;;;;;;;5032617;28;20651;-67
2021/12/27 07:49:31;;;;;;;115.88;67.30;;;;;;;;;;5032130;28;20253;-67
2021/12/27 07:51:57;;;;;;;134.25;76.07;;;;;;;;;;5033277;28;20213;-67
2021/12/27 07:54:22;;;;;;;129.75;80.18;;;;;;;;;;5033302;28;20166;-67
2021/12/27 07:56:47;;;;;;;123.03;74.70;;;;;;;;;;5032946;28;20174;-67
2021/12/27 07:59:12;;;;;;;100.43;57.17;;;;;;;;;;5033751;28;20179;-67
2021/12/27 08:01:41;;;;;;;97.53;57.65;;;;;;;;;;5032761;28;20285;-67
2021/12/27 08:04:06;;;;;;;86.45;50.65;;;;;;;;;;5032760;28;20182;-66
2021/12/27 08:06:31;;;;;;;94.90;53.65;;;;;;;;;;5032811;28;20162;-67
2021/12/27 08:08:57;;;;;;;98.97;61.67;;;;;;;;;;5032734;28;20254;-66
2021/12/27 08:11:24;;;;;;;121.55;70.82;;;;;;;;;;5032709;28;20197;-67
2021/12/27 08:13:49;;;;;;;133.57;80.18;;;;;;;;;;5032623;28;20170;-66
2021/12/27 08:16:15;;;;;;;137.80;78.85;;;;;;;;;;5031272;28;20332;-66
2021/12/27 08:18:46;;;;;;;134.35;72.95;;;;;;;;;;5031505;28;20174;-67
2021/12/27 08:21:12;;;;;;;115.22;69.30;;;;;;;;;;5032459;28;20189;-67
2021/12/27 08:23:37;;;;;;;163.65;84.88;;;;;;;;;;5032388;28;20178;-67
2021/12/27 08:26:02;;;;;;;160.82;90.32;;;;;;;;;;5032414;28;20174;-66
2021/12/27 08:28:28;;;;;;;142.88;79.35;;;;;;;;;;5032632;28;20623;-66
2021/12/27 08:30:53;;;;;;;167.80;92.38;;;;;;;;;;5030983;28;20167;-67
2021/12/27 08:33:18;;;;;;;151.88;87.43;;;;;;;;;;5032599;28;20175;-66
2021/12/27 08:35:43;;;;;;;129.32;73.00;;;;;;;;;;5032121;28;20234;-67
2021/12/27 08:38:09;;;;;;;124.93;75.40;;;;;;;;;;5032202;28;20174;-67
2021/12/27 08:40:34;;;;;;;117.30;69.38;;;;;;;;;;5032180;28;20698;-66
2021/12/27 08:42:59;;;;;;;116.93;76.07;;;;;;;;;;5032382;28;20202;-66
2021/12/27 08:45:25;;;;;;;114.03;68.95;;;;;;;;;;5032197;28;20545;-66
2021/12/27 08:47:50;;;;;;;118.35;67.05;;;;;;;;;;5032119;28;20173;-66
2021/12/27 08:50:17;;;;;;;114.47;66.22;;;;;;;;;;5032117;28;20618;-66
2021/12/27 08:52:43;;;;;;;117.43;66.05;;;;;;;;;;5032022;28;20679;-66
2021/12/27 08:55:08;;;;;;;118.15;67.28;;;;;;;;;;5031280;28;20163;-67
2021/12/27 08:57:33;;;;;;;110.47;67.15;;;;;;;;;;5031803;28;20178;-67
2021/12/27 08:59:59;;;;;;;112.80;64.35;;;;;;;;;;5031924;28;20182;-64
2021/12/27 09:02:24;;;;;;;111.90;64.25;;;;;;;;;;5032108;28;20209;-65
2021/12/27 09:04:52;;;;;;;118.85;64.15;;;;;;;;;;5031866;28;20653;-65
2021/12/27 09:07:18;;;;;;;111.45;61.05;;;;;;;;;;5031919;28;20170;-66
2021/12/27 09:09:44;;;;;;;112.22;64.93;;;;;;;;;;5030557;28;20183;-65
2021/12/27 09:12:10;;;;;;;110.78;63.88;;;;;;;;;;5031865;28;20543;-66
2021/12/27 09:14:35;;;;;;;115.22;65.97;;;;;;;;;;5031669;28;20245;-65
2021/12/27 09:17:00;;;;;;;106.78;61.72;;;;;;;;;;5031802;28;20170;-66
2021/12/27 09:19:26;;;;;;;99.40;56.50;;;;;;;;;;5032042;28;20174;-65
2021/12/27 09:21:52;;;;;;;83.22;51.72;;;;;;;;;;5031964;28;20194;-65
2021/12/27 09:24:18;;;;;;;90.95;52.90;;;;;;;;;;5031719;28;20559;-66
2021/12/27 09:26:43;;;;;;;73.28;47.88;;;;;;;;;;5031652;28;20169;-65
2021/12/27 09:29:08;;;;;;;72.25;41.13;;;;;;;;;;5031682;28;20552;-65
2021/12/27 09:31:34;;;;;;;74.53;45.78;;;;;;;;;;5031674;28;20174;-66
2021/12/27 09:33:59;;;;;;;84.88;49.83;;;;;;;;;;5031423;28;20708;-66
2021/12/27 09:36:25;;;;;;;108.28;60.97;;;;;;;;;;5034867;28;20261;-66
2021/12/27 09:38:50;;;;;;;116.38;65.95;;;;;;;;;;5035571;28;20194;-66
2021/12/27 09:41:15;;;;;;;106.80;60.95;;;;;;;;;;5036533;28;20186;-66
2021/12/27 09:43:41;;;;;;;113.28;64.50;;;;;;;;;;5035739;28;20166;-67
2021/12/27 09:46:06;;;;;;;106.90;64.55;;;;;;;;;;5035474;28;20167;-66
2021/12/27 09:48:33;;;;;;;96.10;55.58;;;;;;;;;;5035663;28;20253;-66
2021/12/27 09:50:58;;;;;;;105.63;59.20;;;;;;;;;;5035345;28;20174;-66
2021/12/27 09:53:24;;;;;;;98.55;58.60;;;;;;;;;;5035259;28;20274;-66
2021/12/27 09:55:49;;;;;;;88.90;56.08;;;;;;;;;;5035197;28;20204;-66
2021/12/27 09:58:14;;;;;;;93.47;58.47;;;;;;;;;;5035184;28;20182;-66
2021/12/27 10:00:42;;;;;;;82.97;51.13;;;;;;;;;;5035249;28;20181;-66
2021/12/27 10:03:09;;;;;;;91.15;55.47;;;;;;;;;;5034481;28;20272;-66
2021/12/27 10:05:35;;;;;;;95.60;55.00;;;;;;;;;;5035332;28;20258;-66
2021/12/27 10:08:01;;;;;;;93.85;57.92;;;;;;;;;;5034999;28;20623;-66
2021/12/27 10:10:26;;;;;;;96.10;59.03;;;;;;;;;;5034879;28;20557;-66
2021/12/27 10:12:51;;;;;;;101.18;61.45;;;;;;;;;;5034866;28;20178;-66
2021/12/27 10:15:21;;;;;;;87.40;53.50;;;;;;;;;;5034760;28;20194;-66
2021/12/27 10:17:47;;;;;;;85.55;53.22;;;;;;;;;;5035931;28;20545;-67
2021/12/27 10:20:14;;;;;;;103.30;62.92;;;;;;;;;;5034766;28;20166;-67
2021/12/27 10:22:41;;;;;;;99.68;58.85;;;;;;;;;;5034947;28;20217;-66
2021/12/27 10:25:13;;;;;;;95.88;57.08;;;;;;;;;;5034649;28;20162;-66
2021/12/27 10:27:38;;;;;;;126.60;72.03;;;;;;;;;;5034804;28;20227;-65
2021/12/27 10:30:11;;;;;;;106.75;63.20;;;;;;;;;;5034603;28;20194;-65
2021/12/27 10:32:36;;;;;;;107.55;63.33;;;;;;;;;;5034508;28;20185;-66
2021/12/27 10:35:04;;;;;;;102.30;62.17;;;;;;;;;;5034481;28;20608;-66
2021/12/27 10:37:30;;;;;;;241.35;102.28;;;;;;;;;;5034974;28;20580;-66
2021/12/27 10:39:55;;;;;;;294.50;118.03;;;;;;;;;;5034480;28;20176;-66
2021/12/27 10:42:23;;;;;;;416.33;145.95;;;;;;;;;;5033129;28;20698;-66
2021/12/27 10:44:51;;;;;;;198.90;85.07;;;;;;;;;;5034235;28;20208;-66
2021/12/27 10:47:23;;;;;;;121.18;63.58;;;;;;;;;;5033153;28;20193;-66
2021/12/27 10:49:49;;;;;;;106.13;58.70;;;;;;;;;;5034233;28;20175;-67
2021/12/27 10:52:14;;;;;;;101.85;58.35;;;;;;;;;;5034465;28;20181;-65
2021/12/27 10:54:39;;;;;;;119.93;63.78;;;;;;;;;;5034362;28;20175;-66
2021/12/27 10:57:05;;;;;;;176.73;86.97;;;;;;;;;;5034125;28;20174;-65
2021/12/27 10:59:30;;;;;;;151.68;76.93;;;;;;;;;;5034374;28;20675;-66
2021/12/27 11:01:56;;;;;;;242.80;100.72;;;;;;;;;;5034155;28;20195;-66
2021/12/27 11:04:21;;;;;;;213.10;92.10;;;;;;;;;;5034260;28;20293;-66
2021/12/27 11:06:48;;;;;;;147.85;77.50;;;;;;;;;;5033923;28;20166;-67
2021/12/27 11:09:14;;;;;;;180.10;88.15;;;;;;;;;;5032833;28;20613;-67
2021/12/27 11:11:40;;;;;;;157.57;78.78;;;;;;;;;;5032937;28;20181;-69
2021/12/27 11:14:06;;;;;;;187.73;86.72;;;;;;;;;;5032762;28;20576;-67
2021/12/27 11:16:31;;;;;;;130.88;68.72;;;;;;;;;;5034625;28;20664;-66
2021/12/27 11:18:57;;;;;;;114.22;68.25;;;;;;;;;;5033725;28;20202;-67
2021/12/27 11:21:23;;;;;;;116.60;66.80;;;;;;;;;;5033639;28;20566;-66
2021/12/27 11:23:49;;;;;;;108.15;65.85;;;;;;;;;;5033634;28;20258;-67
2021/12/27 11:26:20;;;;;;;113.03;66.60;;;;;;;;;;5034146;28;20171;-67
2021/12/27 11:28:46;;;;;;;110.90;66.65;;;;;;;;;;5033585;28;20201;-67
2021/12/27 11:31:15;;;;;;;116.45;67.82;;;;;;;;;;5033534;28;20179;-67
2021/12/27 11:33:53;;;;;;;119.30;66.47;;;;;;;;;;5033619;28;20206;-66
2021/12/27 11:36:20;;;;;;;128.25;68.93;;;;;;;;;;5033531;28;20158;-67
2021/12/27 11:38:47;;;;;;;161.68;89.75;;;;;;;;;;5033434;28;20690;-67
2021/12/27 11:41:27;;;;;;;244.70;117.47;;;;;;;;;;5032460;28;20174;-67
2021/12/27 11:43:59;;;;;;;185.05;99.25;;;;;;;;;;5033436;28;20175;-67
2021/12/27 11:46:26;;;;;;;148.00;85.65;;;;;;;;;;5033478;28;20323;-66
2021/12/27 11:48:53;;;;;;;135.00;82.40;;;;;;;;;;5033456;28;20166;-66
2021/12/27 11:51:29;;;;;;;134.48;77.68;;;;;;;;;;5033597;28;20162;-66
2021/12/27 11:53:55;;;;;;;128.90;77.55;;;;;;;;;;5032114;28;20650;-66
2021/12/27 11:56:39;;;;;;;133.80;76.72;;;;;;;;;;5033265;28;20201;-66
2021/12/27 11:59:32;;;;;;;131.52;74.53;;;;;;;;;;5032707;28;20213;-67
2021/12/27 12:02:04;;;;;;;129.50;77.78;;;;;;;;;;5032570;28;20205;-66
2021/12/27 12:04:38;;;;;;;124.15;71.93;;;;;;;;;;5033141;28;20660;-67
2021/12/27 12:07:05;;;;;;;128.25;73.22;;;;;;;;;;5033058;28;20177;-67
2021/12/27 12:09:30;;;;;;;117.72;70.10;;;;;;;;;;5032816;28;20167;-67
2021/12/27 12:12:00;;;;;;;109.95;66.55;;;;;;;;;;5032759;28;20182;-66
2021/12/27 12:14:29;;;;;;;106.50;63.03;;;;;;;;;;5033031;28;20265;-66
2021/12/27 12:16:56;;;;;;;98.97;58.42;;;;;;;;;;5032950;28;20182;-66
2021/12/27 12:19:37;;;;;;;93.47;59.28;;;;;;;;;;5032598;28;20599;-67
2021/12/27 12:22:03;;;;;;;85.82;54.35;;;;;;;;;;5032801;28;20739;-66
2021/12/27 12:24:28;;;;;;;79.43;49.17;;;;;;;;;;5032553;28;20221;-67
2021/12/27 12:26:55;;;;;;;90.63;51.80;;;;;;;;;;5033558;28;20174;-66
2021/12/27 12:29:21;;;;;;;91.38;52.35;;;;;;;;;;5031213;28;20221;-66
2021/12/27 12:31:47;;;;;;;93.72;53.70;;;;;;;;;;5032418;28;20175;-66
2021/12/27 12:34:20;;;;;;;87.63;55.83;;;;;;;;;;5032449;28;20777;-66
2021/12/27 12:36:48;;;;;;;96.05;55.97;;;;;;;;;;5032281;28;20682;-66
2021/12/27 12:39:13;;;;;;;115.93;70.35;;;;;;;;;;5032575;28;20225;-66
2021/12/27 12:41:40;;;;;;;116.85;66.15;;;;;;;;;;5032429;28;20202;-66
2021/12/27 12:44:06;;;;;;;113.32;63.70;;;;;;;;;;5032447;28;20174;-66
2021/12/27 12:46:40;;;;;;;121.22;67.18;;;;;;;;;;5032176;28;20680;-66
2021/12/27 12:51:46;;;;;;;104.38;61.45;;;;;;;;;;5657583;22;20766;-63
2021/12/27 12:54:32;;;;;;;117.22;64.72;;;;;;;;;;5047767;28;20205;-62
2021/12/27 12:57:17;;;;;;;131.35;73.57;;;;;;;;;;5051315;28;20729;-61
2021/12/27 12:59:44;;;;;;;113.13;67.40;;;;;;;;;;5051851;28;20254;-61
2021/12/27 13:02:20;;;;;;;130.52;74.07;;;;;;;;;;5021515;28;20234;-63
2021/12/27 13:04:49;;;;;;;112.97;65.05;;;;;;;;;;5008571;28;20222;-62
2021/12/27 13:07:16;;;;;;;113.47;66.90;;;;;;;;;;5004838;28;20274;-63
2021/12/27 13:10:05;;;;;;;104.53;61.47;;;;;;;;;;5393574;23;20426;-68
2021/12/27 13:12:31;;;;;;;139.48;80.78;;;;;;;;;;4976458;28;20999;-71
2021/12/27 13:14:56;;;;;;;123.63;68.88;;;;;;;;;;4982843;28;20195;-72
2021/12/27 13:17:24;;;;;;;114.93;67.10;;;;;;;;;;4993410;28;20187;-79
2021/12/27 13:20:05;;;;;;;128.30;67.72;;;;;;;;;;4990104;28;20191;-77
2021/12/27 13:22:39;;;;;;;112.03;64.22;;;;;;;;;;5000376;28;20242;-78
2021/12/27 13:30:14;;;;;;;103.00;56.65;;;;;;;;;;5344374;23;20237;-57
2021/12/27 13:32:43;;;;;;;110.18;57.70;;;;;;;;;;5030996;28;20201;-59
2021/12/27 13:35:11;;;;;;;91.75;54.20;;;;;;;;;;5023683;28;20902;-56
2021/12/27 13:37:37;;;;;;;116.50;62.50;;;;;;;;;;4997475;28;20197;-58
2021/12/27 13:40:04;;;;;;;100.65;62.17;;;;;;;;;;4998519;28;20678;-56
2021/12/27 13:42:29;;;;;;;103.43;61.67;;;;;;;;;;5016723;28;20211;-59
2021/12/27 13:45:05;;;;;;;102.80;60.75;;;;;;;;;;5015568;28;20175;-56
2021/12/27 13:47:31;;;;;;;114.50;61.92;;;;;;;;;;5017093;28;20190;-57
2021/12/27 13:49:59;;;;;;;111.30;62.10;;;;;;;;;;5015725;28;20216;-58
2021/12/27 13:52:26;;;;;;;112.80;61.75;;;;;;;;;;5004405;28;20195;-57
2021/12/27 13:54:53;;;;;;;153.68;86.90;;;;;;;;;;5021339;28;20257;-55
2021/12/27 13:57:19;;;;;;;140.43;80.78;;;;;;;;;;5015082;28;20273;-55
2021/12/27 13:59:53;;;;;;;146.25;83.22;;;;;;;;;;5015834;28;20665;-55
2021/12/27 14:02:18;;;;;;;180.23;104.38;;;;;;;;;;5019364;28;20241;-56
2021/12/27 14:04:43;;;;;;;157.70;88.40;;;;;;;;;;5021142;28;20662;-56
2021/12/27 14:07:09;;;;;;;127.00;70.40;;;;;;;;;;5008108;28;20183;-57
2021/12/27 14:09:36;;;;;;;155.35;85.30;;;;;;;;;;5018726;28;20181;-56
2021/12/27 14:12:04;;;;;;;154.68;84.70;;;;;;;;;;5016623;28;20570;-56
2021/12/27 14:14:40;;;;;;;143.77;75.63;;;;;;;;;;5005632;28;20249;-57
2021/12/27 14:17:09;;;;;;;267.48;117.93;;;;;;;;;;5016647;28;20278;-56
2021/12/27 14:19:35;;;;;;;177.80;87.40;;;;;;;;;;4997196;28;20187;-57